Time;durP1;ratioP1;P1;durP2;ratioP2;P2;SDS_P1;SDS_P2;PMS_P1;PMS_P2;Temp;Humidity;BMP_temperature;BMP_pressure;BME280_temperature;BME280_humidity;BME280_pressure;Samples;Min_cycle;Max_cycle;Signal;HPM_P1;HPM_P2
2021/09/12 00:01:47;;;;;;;7.82;5.80;;;17.10;99.90;;;;;;6345849;22;20635;-94
2021/09/12 00:04:14;;;;;;;9.02;6.10;;;17.10;99.90;;;;;;6346054;22;20171;-94
2021/09/12 00:07:07;;;;;;;7.00;5.43;;;17.10;99.90;;;;;;6346084;22;20196;-94
2021/09/12 00:09:41;;;;;;;6.57;5.72;;;17.20;99.90;;;;;;6345715;22;20177;-94
2021/09/12 00:12:08;;;;;;;6.47;5.38;;;17.20;99.90;;;;;;6345060;22;20139;-94
2021/09/12 00:14:39;;;;;;;6.78;5.60;;;17.20;99.90;;;;;;6345538;22;20143;-94
2021/09/12 00:17:07;;;;;;;6.20;5.38;;;17.20;99.90;;;;;;6329212;22;20199;-96
2021/09/12 00:19:42;;;;;;;7.80;5.30;;;17.30;99.90;;;;;;6340455;22;20182;-93
2021/09/12 00:22:08;;;;;;;6.88;4.95;;;17.30;99.90;;;;;;6339975;22;20171;-94
2021/09/12 00:24:48;;;;;;;6.38;5.18;;;17.30;99.90;;;;;;6313905;22;20155;-94
2021/09/12 00:27:43;;;;;;;9.00;5.28;;;17.30;99.90;;;;;;6340122;22;20175;-92
2021/09/12 00:30:10;;;;;;;5.32;4.55;;;17.30;99.90;;;;;;6339631;22;20179;-94
2021/09/12 00:32:38;;;;;;;9.30;5.18;;;17.40;99.90;;;;;;6313542;22;20155;-94
2021/09/12 00:35:13;;;;;;;5.60;4.43;;;17.40;99.90;;;;;;6339866;22;20143;-95
2021/09/12 00:37:43;;;;;;;9.00;4.85;;;17.40;99.90;;;;;;6339665;22;20592;-94
2021/09/12 00:40:11;;;;;;;5.20;4.70;;;17.40;99.90;;;;;;6339938;22;20205;-93
2021/09/12 00:42:42;;;;;;;6.40;4.90;;;17.40;99.90;;;;;;6339759;22;20152;-94
2021/09/12 00:45:08;;;;;;;5.93;4.80;;;17.40;99.90;;;;;;6339492;22;20183;-94
2021/09/12 00:47:35;;;;;;;6.60;5.15;;;17.40;99.90;;;;;;6313220;22;20265;-94
2021/09/12 00:50:03;;;;;;;6.57;5.22;;;17.40;99.90;;;;;;6339577;22;20478;-94
2021/09/12 00:52:33;;;;;;;7.38;5.32;;;17.40;99.90;;;;;;6313096;22;20152;-94
2021/09/12 00:55:01;;;;;;;7.15;5.28;;;17.40;99.90;;;;;;6312884;22;20139;-94
2021/09/12 00:57:27;;;;;;;6.38;5.20;;;17.40;99.90;;;;;;6312871;22;20466;-94
2021/09/12 00:59:55;;;;;;;6.88;4.80;;;17.40;99.90;;;;;;6339142;22;20198;-95
2021/09/12 01:02:37;;;;;;;5.90;4.75;;;17.40;99.90;;;;;;6312664;22;20180;-95
2021/09/12 01:05:04;;;;;;;6.38;5.30;;;17.40;99.90;;;;;;6313518;22;20147;-94
2021/09/12 01:07:40;;;;;;;6.75;4.85;;;17.40;99.90;;;;;;6313497;22;20163;-95
2021/09/12 01:10:10;;;;;;;8.32;5.10;;;17.40;99.90;;;;;;6313615;22;20631;-94
2021/09/12 01:12:42;;;;;;;6.63;5.28;;;17.40;99.90;;;;;;6313300;22;20143;-93
2021/09/12 01:15:27;;;;;;;6.50;5.22;;;17.40;99.90;;;;;;6313217;22;20147;-94
2021/09/12 01:21:23;;;;;;;7.20;5.15;;;17.40;99.90;;;;;;6372052;22;20190;-94
2021/09/12 01:23:51;;;;;;;7.28;5.53;;;17.50;99.90;;;;;;6344490;22;20162;-94
2021/09/12 01:26:40;;;;;;;5.60;4.90;;;17.50;99.90;;;;;;6344586;22;20580;-94
2021/09/12 01:29:07;;;;;;;10.23;5.60;;;17.50;99.90;;;;;;6340420;22;20172;-95
2021/09/12 01:31:47;;;;;;;6.15;5.45;;;17.50;99.90;;;;;;6344673;22;20671;-94
2021/09/12 01:34:32;;;;;;;7.13;5.80;;;17.50;99.90;;;;;;6344229;22;20150;-94
2021/09/12 01:36:58;;;;;;;8.20;5.70;;;17.50;99.90;;;;;;6344868;22;20161;-94
2021/09/12 01:39:24;;;;;;;7.78;5.95;;;17.50;99.90;;;;;;6345603;22;20151;-94
2021/09/12 01:41:52;;;;;;;7.13;6.03;;;17.50;99.90;;;;;;6345504;22;20190;-95
2021/09/12 01:44:29;;;;;;;6.70;6.00;;;17.50;99.90;;;;;;6344077;22;20174;-94
2021/09/12 01:47:10;;;;;;;11.68;6.28;;;17.50;99.90;;;;;;6344020;22;20235;-94
2021/09/12 01:49:37;;;;;;;7.38;6.03;;;17.50;99.90;;;;;;6344043;22;20623;-94
2021/09/12 01:52:03;;;;;;;8.93;6.75;;;17.60;99.90;;;;;;6344136;22;20151;-94
2021/09/12 01:54:29;;;;;;;7.10;6.40;;;17.60;99.90;;;;;;6343809;22;20150;-93
2021/09/12 01:56:57;;;;;;;11.02;7.38;;;17.60;99.90;;;;;;6343897;22;20489;-94
2021/09/12 01:59:29;;;;;;;8.63;6.75;;;17.60;99.90;;;;;;6344388;22;20150;-94
2021/09/12 02:02:12;;;;;;;6.75;6.05;;;17.50;99.90;;;;;;6344206;22;20151;-94
2021/09/12 02:04:38;;;;;;;6.93;6.18;;;17.50;99.90;;;;;;6344081;22;20174;-94
2021/09/12 02:07:05;;;;;;;8.95;6.65;;;17.50;99.90;;;;;;6343729;22;20182;-93
2021/09/12 02:09:31;;;;;;;6.45;5.85;;;17.50;99.90;;;;;;6344251;22;20177;-93
2021/09/12 02:12:22;;;;;;;7.70;6.15;;;17.50;99.90;;;;;;6344057;22;20237;-94
2021/09/12 02:15:03;;;;;;;10.40;7.40;;;17.50;99.90;;;;;;6347483;22;20146;-94
2021/09/12 02:17:52;;;;;;;9.20;6.63;;;17.50;99.90;;;;;;6327475;22;20194;-94
2021/09/12 02:20:18;;;;;;;7.15;6.13;;;17.50;99.90;;;;;;6316117;22;20182;-95
2021/09/12 02:22:50;;;;;;;8.70;7.45;;;17.50;99.90;;;;;;6316105;22;20246;-94
2021/09/12 02:25:22;;;;;;;8.88;7.28;;;17.50;99.90;;;;;;6316198;22;20155;-95
2021/09/12 02:27:51;;;;;;;9.23;7.05;;;17.40;99.90;;;;;;6315852;22;20186;-93
2021/09/12 02:30:17;;;;;;;7.30;6.60;;;17.50;99.90;;;;;;6316538;22;20182;-94
2021/09/12 02:33:10;;;;;;;7.57;6.88;;;17.40;99.90;;;;;;6316725;22;20208;-95
2021/09/12 02:35:36;;;;;;;9.00;7.05;;;17.40;99.90;;;;;;6316451;22;20158;-94
2021/09/12 02:38:26;;;;;;;8.07;6.78;;;17.40;99.90;;;;;;6316612;22;20147;-94
2021/09/12 02:41:07;;;;;;;7.63;6.82;;;17.50;99.90;;;;;;6316312;22;20178;-95
2021/09/12 02:43:34;;;;;;;7.95;6.90;;;17.40;99.90;;;;;;6316418;22;20200;-95
2021/09/12 02:46:00;;;;;;;10.48;6.97;;;17.40;99.90;;;;;;6316445;22;20158;-94
2021/09/12 02:48:26;;;;;;;7.93;7.00;;;17.40;99.90;;;;;;6316116;22;20604;-95
2021/09/12 02:50:52;;;;;;;9.00;7.60;;;17.40;99.90;;;;;;6315650;22;20175;-94
2021/09/12 02:56:22;;;;;;;8.68;7.72;;;17.40;99.90;;;;;;6343299;22;20496;-94
2021/09/12 02:58:47;;;;;;;9.27;8.05;;;17.40;99.90;;;;;;6315953;22;20139;-95
2021/09/12 03:01:20;;;;;;;9.95;7.22;;;17.40;99.90;;;;;;6316038;22;20258;-93
2021/09/12 03:03:53;;;;;;;10.15;7.93;;;17.40;99.90;;;;;;6315787;22;20612;-94
2021/09/12 03:06:22;;;;;;;12.52;7.90;;;17.40;99.90;;;;;;6315673;22;20196;-94
2021/09/12 03:08:51;;;;;;;11.25;7.72;;;17.40;99.90;;;;;;6316399;22;20209;-94
2021/09/12 03:11:17;;;;;;;8.77;7.63;;;17.40;99.90;;;;;;6315989;22;20240;-95
2021/09/12 03:13:43;;;;;;;8.98;7.90;;;17.40;99.90;;;;;;6316164;22;20147;-94
2021/09/12 03:16:09;;;;;;;11.50;7.70;;;17.40;99.90;;;;;;6317458;22;20143;-94
2021/09/12 03:18:40;;;;;;;9.77;7.18;;;17.40;99.90;;;;;;6347108;22;20177;-94
2021/09/12 03:21:23;;;;;;;8.95;8.05;;;17.40;99.90;;;;;;6347179;22;20269;-94
2021/09/12 03:24:05;;;;;;;10.27;8.38;;;17.40;99.90;;;;;;6346944;22;20528;-95
2021/09/12 03:26:47;;;;;;;10.40;7.57;;;17.40;99.90;;;;;;6345633;22;20142;-94
2021/09/12 03:29:17;;;;;;;8.10;7.20;;;17.40;99.90;;;;;;6345816;22;20142;-94
2021/09/12 03:31:49;;;;;;;9.93;8.73;;;17.40;99.90;;;;;;6345699;22;20139;-94
2021/09/12 03:34:29;;;;;;;9.13;7.82;;;17.30;99.90;;;;;;6345936;22;20147;-93
2021/09/12 03:37:15;;;;;;;10.95;8.75;;;17.40;99.90;;;;;;6345621;22;20237;-95
2021/09/12 03:39:42;;;;;;;9.93;8.40;;;17.40;99.90;;;;;;6345224;22;20665;-94
2021/09/12 03:42:35;;;;;;;12.40;9.05;;;17.40;99.90;;;;;;6345214;22;20596;-93
2021/09/12 03:45:17;;;;;;;12.70;8.18;;;17.40;99.90;;;;;;6345435;22;20157;-93
2021/09/12 03:47:52;;;;;;;11.32;9.40;;;17.40;99.90;;;;;;6345126;22;20170;-94
2021/09/12 03:50:27;;;;;;;9.48;8.45;;;17.40;99.90;;;;;;6345056;22;20244;-94
2021/09/12 03:53:02;;;;;;;10.40;8.10;;;17.40;99.90;;;;;;6345324;22;20474;-93
2021/09/12 03:55:28;;;;;;;10.32;9.10;;;17.40;99.90;;;;;;6345391;22;20143;-93
2021/09/12 03:58:20;;;;;;;14.15;9.10;;;17.30;99.90;;;;;;6345530;22;20154;-94
2021/09/12 04:00:52;;;;;;;9.73;8.32;;;17.40;99.90;;;;;;6345350;22;20517;-95
2021/09/12 04:03:24;;;;;;;11.55;8.63;;;17.40;99.90;;;;;;6345855;22;20154;-95
2021/09/12 04:05:54;;;;;;;10.75;9.65;;;17.30;99.90;;;;;;6345425;22;20484;-94
2021/09/12 04:08:26;;;;;;;13.20;8.68;;;17.40;99.90;;;;;;6345205;22;20259;-94
2021/09/12 04:10:51;;;;;;;11.77;9.35;;;17.40;99.90;;;;;;6344988;22;20233;-93
2021/09/12 04:13:22;;;;;;;13.95;10.27;;;17.40;99.90;;;;;;6345294;22;20146;-94
2021/09/12 04:15:49;;;;;;;12.23;9.63;;;17.30;99.90;;;;;;6345063;22;20147;-94
2021/09/12 04:18:27;;;;;;;10.68;9.18;;;17.40;99.90;;;;;;6344890;22;20198;-94
2021/09/12 04:21:16;;;;;;;10.23;8.60;;;17.30;99.90;;;;;;6345095;22;20231;-94
2021/09/12 04:23:45;;;;;;;12.20;8.80;;;17.30;99.90;;;;;;6344817;22;20223;-94
2021/09/12 04:26:12;;;;;;;11.50;8.40;;;17.30;99.90;;;;;;6344897;22;20183;-95
2021/09/12 04:29:05;;;;;;;11.50;9.32;;;17.40;99.90;;;;;;6344701;22;20185;-94
2021/09/12 04:31:32;;;;;;;14.38;10.43;;;17.40;99.90;;;;;;6344681;22;20183;-93
2021/09/12 04:33:58;;;;;;;10.40;8.48;;;17.30;99.90;;;;;;6344964;22;20147;-93
2021/09/12 04:36:32;;;;;;;11.40;9.45;;;17.40;99.90;;;;;;6345185;22;20226;-93
2021/09/12 04:39:10;;;;;;;11.68;10.45;;;17.40;99.90;;;;;;6344566;22;20147;-94
2021/09/12 04:42:17;;;;;;;14.45;10.25;;;17.40;99.90;;;;;;6344785;22;20178;-94
2021/09/12 04:45:05;;;;;;;12.52;9.93;;;17.40;99.90;;;;;;6344523;22;20568;-94
2021/09/12 04:47:34;;;;;;;11.85;10.25;;;17.40;99.90;;;;;;6344289;22;20178;-94
2021/09/12 04:50:27;;;;;;;11.50;10.07;;;17.40;99.90;;;;;;6344518;22;20174;-94
2021/09/12 04:52:53;;;;;;;12.82;10.35;;;17.40;99.90;;;;;;6344629;22;20151;-95
2021/09/12 04:55:23;;;;;;;11.75;9.80;;;17.40;99.90;;;;;;6344335;22;20174;-95
2021/09/12 04:57:49;;;;;;;10.85;9.75;;;17.40;99.90;;;;;;6344624;22;20157;-93
2021/09/12 05:00:17;;;;;;;11.77;10.20;;;17.40;99.90;;;;;;6344528;22;20217;-94
2021/09/12 05:02:47;;;;;;;12.60;9.63;;;17.40;99.90;;;;;;6344310;22;20143;-94
2021/09/12 05:05:16;;;;;;;12.13;9.68;;;17.40;99.90;;;;;;6344720;22;20584;-94
2021/09/12 05:07:49;;;;;;;10.82;9.27;;;17.40;99.90;;;;;;6344478;22;20182;-93
2021/09/12 05:10:23;;;;;;;11.23;9.32;;;17.40;99.90;;;;;;6344214;22;20632;-93
2021/09/12 05:13:01;;;;;;;12.45;9.35;;;17.50;99.90;;;;;;6344470;22;20147;-94
2021/09/12 05:15:58;;;;;;;10.27;9.15;;;17.50;99.90;;;;;;6344451;22;20151;-92
2021/09/12 05:18:42;;;;;;;11.30;9.65;;;17.50;99.90;;;;;;6313960;22;20198;-94
2021/09/12 05:21:11;;;;;;;10.65;9.55;;;17.50;99.90;;;;;;6312847;22;20252;-93
2021/09/12 05:23:39;;;;;;;11.57;10.02;;;17.50;99.90;;;;;;6313291;22;20578;-95
2021/09/12 05:26:22;;;;;;;14.85;10.63;;;17.50;99.90;;;;;;6312766;22;20196;-94
2021/09/12 05:28:48;;;;;;;12.40;9.52;;;17.50;99.90;;;;;;6312972;22;20643;-94
2021/09/12 05:31:14;;;;;;;10.98;9.25;;;17.50;99.90;;;;;;6312940;22;20175;-94
2021/09/12 05:37:01;;;;;;;12.35;9.30;;;17.50;99.90;;;;;;6340442;22;20158;-94
2021/09/12 05:39:39;;;;;;;10.30;9.20;;;17.50;99.90;;;;;;6312724;22;20632;-94
2021/09/12 05:42:24;;;;;;;11.57;9.40;;;17.60;99.90;;;;;;6313366;22;20759;-93
2021/09/12 05:44:53;;;;;;;11.50;10.20;;;17.60;99.90;;;;;;6312644;22;20161;-93
2021/09/12 05:47:25;;;;;;;11.45;10.25;;;17.60;99.90;;;;;;6312312;22;20190;-93
2021/09/12 05:49:56;;;;;;;12.52;10.35;;;17.60;99.90;;;;;;6312665;22;20232;-94
2021/09/12 05:52:26;;;;;;;11.57;9.38;;;17.60;99.90;;;;;;6312673;22;20162;-93
2021/09/12 05:55:33;;;;;;;14.88;10.20;;;17.60;99.90;;;;;;6312809;22;20148;-94
2021/09/12 05:58:06;;;;;;;11.27;9.48;;;17.60;99.90;;;;;;6314590;22;20151;-95
2021/09/12 06:00:50;;;;;;;10.65;8.93;;;17.60;99.90;;;;;;6315384;22;20175;-94
2021/09/12 06:03:25;;;;;;;10.93;9.48;;;17.70;99.90;;;;;;6313696;22;20155;-93
2021/09/12 06:05:52;;;;;;;11.77;9.00;;;17.70;99.90;;;;;;6312443;22;20146;-94
2021/09/12 06:08:33;;;;;;;10.30;9.23;;;17.70;99.90;;;;;;6312555;22;20171;-93
2021/09/12 06:10:59;;;;;;;10.27;9.23;;;17.70;99.90;;;;;;6312358;22;20175;-93
2021/09/12 06:13:26;;;;;;;9.95;8.88;;;17.80;99.90;;;;;;6286864;22;20171;-93
2021/09/12 06:15:53;;;;;;;11.82;10.25;;;17.80;99.90;;;;;;6313192;22;20159;-93
2021/09/12 06:18:52;;;;;;;11.75;8.90;;;17.80;99.90;;;;;;6341436;22;20190;-93
2021/09/12 06:21:23;;;;;;;10.57;9.48;;;17.80;99.90;;;;;;6344252;22;20190;-93
2021/09/12 06:24:05;;;;;;;12.93;10.65;;;17.80;99.90;;;;;;6344771;22;20242;-93
2021/09/12 06:26:34;;;;;;;11.35;9.43;;;17.80;99.90;;;;;;6373674;22;20185;-95
2021/09/12 06:29:00;;;;;;;11.02;9.80;;;17.80;99.90;;;;;;6345652;22;20153;-93
2021/09/12 06:31:28;;;;;;;13.65;11.10;;;17.80;99.90;;;;;;6344122;22;20178;-94
2021/09/12 06:34:01;;;;;;;11.05;9.32;;;17.90;99.90;;;;;;6344124;22;20212;-94
2021/09/12 06:36:27;;;;;;;12.27;9.95;;;17.90;99.90;;;;;;6344218;22;20488;-93
2021/09/12 06:38:59;;;;;;;11.45;10.18;;;17.90;99.90;;;;;;6344755;22;20227;-94
2021/09/12 06:41:26;;;;;;;10.55;9.35;;;18.00;99.90;;;;;;6370096;22;20186;-94
2021/09/12 06:43:53;;;;;;;11.57;9.75;;;18.00;99.90;;;;;;6344214;22;20492;-93
2021/09/12 06:46:20;;;;;;;12.15;9.85;;;18.10;99.90;;;;;;6344053;22;20591;-93
2021/09/12 06:48:57;;;;;;;13.13;10.27;;;18.10;99.90;;;;;;6344611;22;20634;-92
2021/09/12 06:51:25;;;;;;;11.40;10.15;;;18.20;99.90;;;;;;6370367;22;20181;-93
2021/09/12 06:54:04;;;;;;;13.02;11.35;;;18.20;99.90;;;;;;6370434;22;20226;-93
2021/09/12 06:56:32;;;;;;;13.13;11.32;;;18.20;99.90;;;;;;6369904;22;20512;-93
2021/09/12 06:59:03;;;;;;;13.00;11.00;;;18.20;99.90;;;;;;6370075;22;20182;-93
2021/09/12 07:01:45;;;;;;;12.75;10.93;;;18.30;99.90;;;;;;6371905;22;20182;-93
2021/09/12 07:04:54;;;;;;;12.32;10.55;;;18.30;99.90;;;;;;6372120;22;20221;-93
2021/09/12 07:07:20;;;;;;;13.40;10.07;;;18.40;99.90;;;;;;6345324;22;20197;-93
2021/09/12 07:09:59;;;;;;;12.73;10.57;;;18.40;99.90;;;;;;6371947;22;20166;-94
2021/09/12 07:12:25;;;;;;;11.40;10.20;;;18.50;99.90;;;;;;6371869;22;20150;-93
2021/09/12 07:15:05;;;;;;;13.98;10.25;;;18.50;99.90;;;;;;6345204;22;20142;-93
2021/09/12 07:17:35;;;;;;;12.93;10.75;;;18.50;99.90;;;;;;6344666;22;20700;-93
2021/09/12 07:20:37;;;;;;;13.57;10.27;;;18.50;99.90;;;;;;6371780;22;20204;-93
2021/09/12 07:23:20;;;;;;;11.45;10.20;;;18.50;99.90;;;;;;6345657;22;20172;-94
2021/09/12 07:25:49;;;;;;;14.82;9.95;;;18.50;99.90;;;;;;6371756;22;20155;-92
2021/09/12 07:28:29;;;;;;;11.65;9.57;;;18.50;99.90;;;;;;6344954;22;20218;-93
2021/09/12 07:30:57;;;;;;;11.48;9.15;;;18.50;99.90;;;;;;6345095;22;20182;-93
2021/09/12 07:34:04;;;;;;;11.15;9.52;;;18.50;99.90;;;;;;6345211;22;20178;-93
2021/09/12 07:36:38;;;;;;;11.32;9.05;;;18.50;99.90;;;;;;6346139;22;20150;-94
2021/09/12 07:39:10;;;;;;;12.73;9.60;;;18.60;99.90;;;;;;6345124;22;20168;-93
2021/09/12 07:41:49;;;;;;;12.98;10.10;;;18.70;99.90;;;;;;6345179;22;20173;-92
2021/09/12 07:44:31;;;;;;;11.55;10.00;;;18.70;99.90;;;;;;6371441;22;20146;-93
2021/09/12 07:47:00;;;;;;;12.80;9.73;;;18.80;99.90;;;;;;6371367;22;20179;-93
2021/09/12 07:49:38;;;;;;;14.10;10.48;;;18.90;99.90;;;;;;6345438;22;20162;-95
2021/09/12 07:52:12;;;;;;;13.40;10.82;;;19.00;99.90;;;;;;6371485;22;20146;-93
2021/09/12 07:54:47;;;;;;;11.45;9.70;;;19.10;99.90;;;;;;6371343;22;20451;-92
2021/09/12 07:57:14;;;;;;;14.10;10.43;;;19.10;99.90;;;;;;6345044;22;20150;-93
2021/09/12 07:59:52;;;;;;;11.80;9.82;;;19.20;99.90;;;;;;6371148;22;20178;-94
2021/09/12 08:02:18;;;;;;;12.85;10.10;;;19.20;99.90;;;;;;6344905;22;20151;-92
2021/09/12 08:04:50;;;;;;;15.90;11.82;;;19.30;99.90;;;;;;6372653;22;20641;-94
2021/09/12 08:07:18;;;;;;;14.98;11.02;;;19.30;99.90;;;;;;6371554;22;20178;-93
2021/09/12 08:10:05;;;;;;;14.82;10.65;;;19.40;99.90;;;;;;6371799;22;20174;-93
2021/09/12 08:12:38;;;;;;;13.82;10.95;;;19.40;99.90;;;;;;6345731;22;20172;-94
2021/09/12 08:15:04;;;;;;;11.43;9.70;;;19.40;99.90;;;;;;6372764;22;20159;-93
2021/09/12 08:17:40;;;;;;;13.95;10.20;;;19.40;99.90;;;;;;6344388;22;20201;-94
2021/09/12 08:20:07;;;;;;;13.63;10.38;;;19.30;99.90;;;;;;6371353;22;20186;-94
2021/09/12 08:22:33;;;;;;;11.48;9.68;;;19.30;99.90;;;;;;6345038;22;20159;-96
2021/09/12 08:25:00;;;;;;;12.75;9.90;;;19.20;99.90;;;;;;6344758;22;20490;-92
2021/09/12 08:27:27;;;;;;;11.25;9.55;;;19.10;99.90;;;;;;6344650;22;20183;-94
2021/09/12 08:33:18;;;;;;;13.32;10.35;;;19.00;99.90;;;;;;6372366;22;20145;-94
2021/09/12 08:35:52;;;;;;;14.65;10.98;;;18.90;99.90;;;;;;6370806;22;20531;-93
2021/09/12 08:38:19;;;;;;;15.52;12.00;;;18.90;99.90;;;;;;6371003;22;20154;-93
2021/09/12 08:40:46;;;;;;;14.88;11.32;;;18.90;99.90;;;;;;6370763;22;20205;-92
2021/09/12 08:43:30;;;;;;;17.42;12.85;;;19.00;99.90;;;;;;6370887;22;20159;-93
2021/09/12 08:46:33;;;;;;;14.15;11.45;;;19.10;99.90;;;;;;6344799;22;20158;-92
2021/09/12 08:52:04;;;;;;;16.00;12.68;;;19.20;99.90;;;;;;6372210;22;20167;-94
2021/09/12 08:54:39;;;;;;;15.90;12.57;;;19.20;99.90;;;;;;6344735;22;20231;-92
2021/09/12 08:57:18;;;;;;;19.77;13.98;;;19.30;99.90;;;;;;6370650;22;20150;-93
2021/09/12 08:59:52;;;;;;;16.25;13.23;;;19.60;99.90;;;;;;6370708;22;20211;-93
2021/09/12 09:02:38;;;;;;;16.48;12.82;;;19.60;99.90;;;;;;6370949;22;20237;-93
2021/09/12 09:05:34;;;;;;;16.60;13.02;;;19.60;99.90;;;;;;6344434;22;20166;-92
2021/09/12 09:08:27;;;;;;;18.00;14.52;;;19.60;99.90;;;;;;6344506;22;20263;-93
2021/09/12 09:11:49;;;;;;;19.27;14.10;;;19.50;99.90;;;;;;6344159;22;20174;-93
2021/09/12 09:14:18;;;;;;;15.27;12.75;;;19.50;99.90;;;;;;6344360;22;20158;-93
2021/09/12 09:16:45;;;;;;;24.52;14.00;;;19.50;99.90;;;;;;6344398;22;20192;-93
2021/09/12 09:19:13;;;;;;;18.58;14.50;;;19.50;99.90;;;;;;6344350;22;20459;-93
2021/09/12 09:22:04;;;;;;;19.20;14.68;;;19.50;99.90;;;;;;6344310;22;20193;-93
2021/09/12 09:24:30;;;;;;;15.65;13.30;;;19.50;99.90;;;;;;6344395;22;20161;-93
2021/09/12 09:27:07;;;;;;;14.57;12.13;;;19.50;99.90;;;;;;6370735;22;20216;-93
2021/09/12 09:29:45;;;;;;;9.15;7.78;;;19.50;99.90;;;;;;6344857;22;20170;-93
2021/09/12 09:32:14;;;;;;;8.77;5.80;;;19.50;99.90;;;;;;6345178;22;20150;-94
2021/09/12 09:34:45;;;;;;;6.35;4.70;;;19.40;99.90;;;;;;6345112;22;20150;-93
2021/09/12 09:37:17;;;;;;;5.57;3.45;;;19.40;99.90;;;;;;6345808;22;20314;-94
2021/09/12 09:39:48;;;;;;;2.47;2.28;;;19.50;99.90;;;;;;6345474;22;20181;-93
2021/09/12 09:42:31;;;;;;;3.05;2.75;;;19.60;99.90;;;;;;6344660;22;20193;-93
2021/09/12 09:45:19;;;;;;;2.08;1.70;;;19.60;99.90;;;;;;6344975;22;20154;-94
2021/09/12 09:47:51;;;;;;;2.65;1.85;;;19.70;99.90;;;;;;6344459;22;20186;-92
2021/09/12 09:50:40;;;;;;;2.90;1.60;;;19.80;99.90;;;;;;6344584;22;20196;-93
2021/09/12 09:53:16;;;;;;;3.17;1.95;;;19.90;99.90;;;;;;6344806;22;20622;-94
2021/09/12 09:55:49;;;;;;;1.75;1.58;;;20.00;99.90;;;;;;6344695;22;20151;-93
2021/09/12 09:58:18;;;;;;;2.22;1.80;;;19.90;99.90;;;;;;6344313;22;20161;-94
2021/09/12 10:00:48;;;;;;;2.40;2.20;;;19.90;99.90;;;;;;6344696;22;20209;-94
2021/09/12 10:03:49;;;;;;;2.60;2.05;;;20.00;99.90;;;;;;6344782;22;20150;-94
2021/09/12 10:06:16;;;;;;;2.67;2.47;;;20.00;99.90;;;;;;6344957;22;20190;-95
2021/09/12 10:08:49;;;;;;;3.45;2.65;;;20.00;99.90;;;;;;6345043;22;20174;-94
2021/09/12 10:11:42;;;;;;;3.42;2.80;;;19.90;99.90;;;;;;6345003;22;20620;-94
2021/09/12 10:14:50;;;;;;;3.97;3.30;;;19.90;99.90;;;;;;6345181;22;20479;-94
2021/09/12 10:17:28;;;;;;;4.20;3.60;;;20.00;99.90;;;;;;6344522;22;20194;-93
2021/09/12 10:20:47;;;;;;;5.47;4.53;;;20.00;99.90;;;;;;6344512;22;20518;-92
2021/09/12 10:23:26;;;;;;;5.63;4.05;;;20.00;99.90;;;;;;6345375;22;20158;-93
2021/09/12 10:26:03;;;;;;;5.18;4.30;;;20.00;99.90;;;;;;6344841;22;20241;-94
2021/09/12 10:28:37;;;;;;;5.60;4.70;;;20.00;99.90;;;;;;6344715;22;20200;-94
2021/09/12 10:31:50;;;;;;;5.22;4.43;;;20.00;99.90;;;;;;6345842;22;20650;-94
2021/09/12 10:34:16;;;;;;;5.78;4.93;;;20.00;99.90;;;;;;6345769;22;20169;-95
2021/09/12 10:36:46;;;;;;;6.38;5.50;;;20.00;99.90;;;;;;6346962;22;20576;-94
2021/09/12 10:39:25;;;;;;;5.72;4.80;;;19.90;99.90;;;;;;6347436;22;20154;-95
2021/09/12 10:42:44;;;;;;;6.85;5.03;;;20.00;99.90;;;;;;6347795;22;20162;-93
2021/09/12 10:45:21;;;;;;;5.82;4.50;;;20.00;99.90;;;;;;6347741;22;20472;-95
2021/09/12 10:48:21;;;;;;;6.68;5.05;;;20.00;99.90;;;;;;6347687;22;20256;-95
2021/09/12 10:50:49;;;;;;;7.30;4.80;;;20.10;99.90;;;;;;6346791;22;20174;-95
2021/09/12 10:53:59;;;;;;;6.97;4.93;;;20.00;99.90;;;;;;6346813;22;20675;-95
2021/09/12 10:56:28;;;;;;;5.57;4.78;;;20.10;99.90;;;;;;6347705;22;20158;-95
2021/09/12 10:59:07;;;;;;;5.85;5.13;;;20.10;99.90;;;;;;6348645;22;20161;-95
2021/09/12 11:01:42;;;;;;;5.30;4.80;;;20.30;99.90;;;;;;6347143;22;20174;-93
2021/09/12 11:04:32;;;;;;;6.60;5.35;;;20.30;99.90;;;;;;6348483;22;20158;-93
2021/09/12 11:07:04;;;;;;;8.10;5.47;;;20.40;99.90;;;;;;6347734;22;20155;-94
2021/09/12 11:09:45;;;;;;;9.05;5.90;;;20.60;99.90;;;;;;6347074;22;20167;-95
2021/09/12 11:12:11;;;;;;;7.15;5.50;;;20.60;99.90;;;;;;6347436;22;20147;-95
2021/09/12 11:14:48;;;;;;;8.23;5.18;;;20.70;99.90;;;;;;6347338;22;20147;-93
2021/09/12 11:17:21;;;;;;;6.82;5.28;;;20.70;99.90;;;;;;6335514;22;20197;-95
2021/09/12 11:20:15;;;;;;;7.32;5.55;;;20.70;99.90;;;;;;6342460;22;20617;-94
2021/09/12 11:26:04;;;;;;;5.80;5.20;;;20.70;99.90;;;;;;6343086;22;20170;-94
2021/09/12 11:28:41;;;;;;;9.68;5.57;;;20.70;99.90;;;;;;6341925;22;20684;-93
2021/09/12 11:31:28;;;;;;;8.10;5.63;;;20.70;99.90;;;;;;6340708;22;20178;-94
2021/09/12 11:34:26;;;;;;;7.95;5.05;;;20.80;99.90;;;;;;6315257;22;20163;-94
2021/09/12 11:37:26;;;;;;;7.03;4.82;;;20.80;99.90;;;;;;6314680;22;20155;-94
2021/09/12 11:40:00;;;;;;;7.18;5.40;;;20.80;99.90;;;;;;6314397;22;20200;-95
2021/09/12 11:42:44;;;;;;;9.13;5.72;;;20.80;99.90;;;;;;6341397;22;20155;-94
2021/09/12 11:45:21;;;;;;;6.45;5.40;;;20.80;99.90;;;;;;6341611;22;20179;-96
2021/09/12 11:48:02;;;;;;;6.78;5.55;;;20.80;99.90;;;;;;6341506;22;20210;-94
2021/09/12 11:50:27;;;;;;;8.80;5.25;;;20.90;99.90;;;;;;6314932;22;20178;-93
2021/09/12 11:52:56;;;;;;;8.88;6.05;;;21.00;99.90;;;;;;6341093;22;20214;-95
2021/09/12 11:55:27;;;;;;;7.28;5.57;;;21.00;99.90;;;;;;6340882;22;20152;-94
2021/09/12 11:58:14;;;;;;;6.38;5.10;;;21.00;99.90;;;;;;6314205;22;20178;-94
2021/09/12 12:00:48;;;;;;;7.20;5.40;;;21.00;99.90;;;;;;6341580;22;20182;-95
2021/09/12 12:03:17;;;;;;;9.40;5.32;;;20.90;99.90;;;;;;6315514;22;20158;-94
2021/09/12 12:05:59;;;;;;;8.45;5.63;;;20.90;99.90;;;;;;6315759;22;20151;-93
2021/09/12 12:09:10;;;;;;;7.25;4.88;;;21.00;99.90;;;;;;6341241;22;20240;-95
2021/09/12 12:12:13;;;;;;;6.75;4.50;;;21.00;99.90;;;;;;6343339;22;20143;-93
2021/09/12 12:15:01;;;;;;;6.78;4.75;;;21.10;99.90;;;;;;6316511;22;20147;-93
2021/09/12 12:17:34;;;;;;;6.43;4.70;;;21.20;99.90;;;;;;6316512;22;20284;-94
2021/09/12 12:20:20;;;;;;;5.72;4.60;;;21.20;99.90;;;;;;6315648;22;20512;-94
2021/09/12 12:22:46;;;;;;;5.05;4.35;;;21.10;99.90;;;;;;6315024;22;20497;-93
2021/09/12 12:25:29;;;;;;;7.40;4.15;;;21.10;99.90;;;;;;6314733;22;20238;-93
2021/09/12 12:28:21;;;;;;;6.55;4.25;;;21.10;99.90;;;;;;6314575;22;20627;-95
2021/09/12 12:31:12;;;;;;;7.40;3.83;;;21.10;99.90;;;;;;6315712;22;20207;-94
2021/09/12 12:33:41;;;;;;;5.57;3.90;;;21.20;99.90;;;;;;6315707;22;20174;-93
2021/09/12 12:36:27;;;;;;;8.60;4.18;;;21.20;99.90;;;;;;6314954;22;20147;-94
2021/09/12 12:39:13;;;;;;;11.55;4.60;;;21.30;99.90;;;;;;6314607;22;20238;-94
2021/09/12 12:41:52;;;;;;;6.05;4.10;;;21.40;99.90;;;;;;6314454;22;20162;-95
2021/09/12 12:44:24;;;;;;;5.65;4.13;;;21.50;99.90;;;;;;6314485;22;20235;-94
2021/09/12 12:46:52;;;;;;;6.95;4.10;;;21.50;99.90;;;;;;6314509;22;20159;-93
2021/09/12 12:49:34;;;;;;;5.45;3.88;;;21.50;99.90;;;;;;6313766;22;20151;-94
2021/09/12 12:52:16;;;;;;;5.75;4.30;;;21.70;99.90;;;;;;6314869;22;20205;-94
2021/09/12 12:54:46;;;;;;;7.22;4.47;;;21.70;99.90;;;;;;6315099;22;20147;-93
2021/09/12 12:57:13;;;;;;;5.13;4.13;;;21.80;99.90;;;;;;6314872;22;20238;-95
2021/09/12 12:59:51;;;;;;;6.95;4.32;;;21.80;99.90;;;;;;6318327;22;20543;-94
2021/09/12 13:02:22;;;;;;;6.65;4.32;;;21.90;99.90;;;;;;6316686;22;20557;-94
2021/09/12 13:04:52;;;;;;;7.32;4.40;;;21.90;99.90;;;;;;6314849;22;20155;-93
2021/09/12 13:07:17;;;;;;;7.85;4.30;;;21.90;99.90;;;;;;6314280;22;20277;-95
2021/09/12 13:09:53;;;;;;;5.63;3.95;;;21.90;99.90;;;;;;6314125;22;20171;-93
2021/09/12 13:12:29;;;;;;;5.47;3.78;;;21.90;99.90;;;;;;6316332;22;20151;-94
2021/09/12 13:15:30;;;;;;;6.55;4.18;;;21.80;99.90;;;;;;6316859;22;20175;-95
2021/09/12 13:18:18;;;;;;;5.97;4.22;;;21.70;99.90;;;;;;6335487;22;20661;-94
2021/09/12 13:20:48;;;;;;;5.95;3.72;;;21.70;99.90;;;;;;6346131;22;20178;-95
2021/09/12 13:23:31;;;;;;;6.57;4.00;;;21.70;99.90;;;;;;6346551;22;20576;-93
2021/09/12 13:26:21;;;;;;;6.85;4.10;;;21.60;99.90;;;;;;6346275;22;20183;-94
2021/09/12 13:28:51;;;;;;;8.02;4.30;;;21.60;99.90;;;;;;6346380;22;20182;-93
2021/09/12 13:31:33;;;;;;;5.18;4.15;;;21.60;99.90;;;;;;6346237;22;20514;-94
2021/09/12 13:34:00;;;;;;;7.25;3.60;;;21.50;99.90;;;;;;6346051;22;20154;-93
2021/09/12 13:36:35;;;;;;;4.90;3.67;;;21.40;99.90;;;;;;6345826;22;20195;-93
2021/09/12 13:39:16;;;;;;;6.70;3.75;;;21.30;99.90;;;;;;6346009;22;20199;-94
2021/09/12 13:42:02;;;;;;;7.47;4.05;;;21.30;99.90;;;;;;6346273;22;20200;-94
2021/09/12 13:44:31;;;;;;;5.72;3.92;;;21.20;99.90;;;;;;6346242;22;20215;-94
2021/09/12 13:46:58;;;;;;;5.60;3.47;;;21.10;99.90;;;;;;6345904;22;20614;-94